Time,TemperatureF,DewpointF,PressureIn,WindDirection,WindDirectionDegrees,WindSpeedMPH,WindSpeedGustMPH,Humidity,HourlyPrecipIn,Conditions,Clouds,dailyrainin,SoftwareType,DateUTC
2013-02-17 00:00:00,32.9,-0.8,30.11,NNW,328,0.0,0.0,23,0.00,,,0.00,VWS V14.00,2013-02-17 05:00:00,
2013-02-17 00:01:00,32.7,-1.0,30.11,SW,235,0.0,0.0,23,0.00,,,0.00,VWS V14.00,2013-02-17 05:01:00,
2013-02-17 00:06:00,32.7,-1.0,30.11,NW,308,0.0,0.0,23,0.00,,,0.00,VWS V14.00,2013-02-17 05:06:00,
2013-02-17 00:11:00,32.5,-1.1,30.11,NW,326,4.0,5.4,23,0.00,,,0.00,VWS V14.00,2013-02-17 05:11:00,
2013-02-17 00:16:00,32.4,0.5,30.11,North,357,4.9,5.8,25,0.00,,,0.00,VWS V14.00,2013-02-17 05:16:00,
2013-02-17 00:21:00,32.4,0.5,30.11,North,357,6.3,6.3,25,0.00,,,0.00,VWS V14.00,2013-02-17 05:21:00,
2013-02-17 00:27:00,32.2,0.3,30.11,WNW,293,3.6,3.6,25,0.00,,,0.00,VWS V14.00,2013-02-17 05:27:00,
2013-02-17 00:32:00,32.4,0.5,30.11,North,353,6.3,8.3,25,0.00,,,0.00,VWS V14.00,2013-02-17 05:32:00,
2013-02-17 00:37:00,32.2,0.3,30.11,WNW,294,3.1,8.3,25,0.00,,,0.00,VWS V14.00,2013-02-17 05:37:00,
2013-02-17 00:42:00,32.2,0.3,30.11,NNW,331,4.9,6.3,25,0.00,,,0.00,VWS V14.00,2013-02-17 05:42:00,
2013-02-17 00:47:00,32.2,0.3,30.11,WNW,288,4.9,4.9,25,0.00,,,0.00,VWS V14.00,2013-02-17 05:47:00,
2013-02-17 00:52:00,31.6,-0.1,30.11,West,269,5.4,5.8,25,0.00,,,0.00,VWS V14.00,2013-02-17 05:52:00,
2013-02-17 00:57:00,31.6,-0.1,30.11,NW,319,4.0,6.3,25,0.00,,,0.00,VWS V14.00,2013-02-17 05:57:00,
2013-02-17 01:02:00,31.5,-0.3,30.11,NNW,338,4.0,4.0,25,0.00,,,0.00,VWS V14.00,2013-02-17 06:02:00,
2013-02-17 01:07:00,31.3,-0.4,30.11,NNW,338,2.7,4.0,25,0.00,,,0.00,VWS V14.00,2013-02-17 06:07:00,
2013-02-17 01:13:00,31.1,1.8,30.14,NW,319,3.6,5.8,28,0.00,,,0.00,VWS V14.00,2013-02-17 06:13:00,
2013-02-17 01:18:00,31.1,1.8,30.14,West,276,3.1,5.4,28,0.00,,,0.00,VWS V14.00,2013-02-17 06:18:00,
2013-02-17 01:23:00,31.1,1.8,30.14,NW,325,3.6,3.6,28,0.00,,,0.00,VWS V14.00,2013-02-17 06:23:00,
2013-02-17 01:28:00,30.9,1.7,30.14,NW,326,3.1,4.5,28,0.00,,,0.00,VWS V14.00,2013-02-17 06:28:00,
2013-02-17 01:33:00,30.7,1.5,30.14,North,0,0.0,4.0,28,0.00,,,0.00,VWS V14.00,2013-02-17 06:33:00,
2013-02-17 01:38:00,30.4,1.2,30.14,North,350,2.7,3.1,28,0.00,,,0.00,VWS V14.00,2013-02-17 06:38:00,
2013-02-17 01:43:00,30.6,1.4,30.14,WNW,303,4.0,4.0,28,0.00,,,0.00,VWS V14.00,2013-02-17 06:43:00,
2013-02-17 01:48:00,30.6,2.8,30.14,NW,317,3.1,3.1,30,0.00,,,0.00,VWS V14.00,2013-02-17 06:48:00,
2013-02-17 01:53:00,30.6,2.8,30.14,NW,314,8.1,8.1,30,0.00,,,0.00,VWS V14.00,2013-02-17 06:53:00,
2013-02-17 01:58:00,30.4,2.7,30.14,NW,306,2.2,4.0,30,0.00,,,0.00,VWS V14.00,2013-02-17 06:58:00,
2013-02-17 02:03:00,30.2,2.5,30.14,WNW,287,0.0,4.0,30,0.00,,,0.00,VWS V14.00,2013-02-17 07:03:00,
2013-02-17 02:08:00,30.2,2.5,30.14,WNW,300,3.6,4.0,30,0.00,,,0.00,VWS V14.00,2013-02-17 07:08:00,
2013-02-17 02:13:00,30.0,2.3,30.14,WNW,288,5.4,5.8,30,0.00,,,0.00,VWS V14.00,2013-02-17 07:13:00,
2013-02-17 02:18:00,30.0,3.1,30.14,WNW,286,2.7,5.4,31,0.00,,,0.00,VWS V14.00,2013-02-17 07:18:00,
2013-02-17 02:24:00,30.0,3.1,30.14,WNW,302,3.1,4.9,31,0.00,,,0.00,VWS V14.00,2013-02-17 07:24:00,
2013-02-17 02:29:00,29.8,2.9,30.14,WNW,291,7.6,8.3,31,0.00,,,0.00,VWS V14.00,2013-02-17 07:29:00,
2013-02-17 02:34:00,29.8,2.9,30.14,WNW,284,4.0,5.4,31,0.00,,,0.00,VWS V14.00,2013-02-17 07:34:00,
2013-02-17 02:39:00,29.8,2.9,30.14,WNW,300,2.7,5.8,31,0.00,,,0.00,VWS V14.00,2013-02-17 07:39:00,
2013-02-17 02:44:00,29.5,2.6,30.14,WNW,298,5.4,5.4,31,0.00,,,0.00,VWS V14.00,2013-02-17 07:44:00,
2013-02-17 02:49:00,29.5,2.6,30.14,WNW,286,4.0,5.4,31,0.00,,,0.00,VWS V14.00,2013-02-17 07:49:00,
2013-02-17 02:54:00,29.3,2.4,30.14,NNW,339,3.6,5.4,31,0.00,,,0.00,VWS V14.00,2013-02-17 07:54:00,
2013-02-17 02:59:00,29.5,2.6,30.14,WNW,293,6.3,6.3,31,0.00,,,0.00,VWS V14.00,2013-02-17 07:59:00,
2013-02-17 03:04:00,29.3,2.4,30.14,NW,305,4.0,4.9,31,0.00,,,0.00,VWS V14.00,2013-02-17 08:04:00,
2013-02-17 03:09:00,29.3,2.4,30.14,WNW,302,4.9,8.7,31,0.00,,,0.00,VWS V14.00,2013-02-17 08:09:00,
2013-02-17 03:15:00,29.3,2.4,30.14,North,353,5.8,8.7,31,0.00,,,0.00,VWS V14.00,2013-02-17 08:15:00,
2013-02-17 03:20:00,29.1,2.3,30.14,West,276,3.6,8.3,31,0.00,,,0.00,VWS V14.00,2013-02-17 08:20:00,
2013-02-17 03:25:00,28.9,2.1,30.14,NNW,345,3.6,5.8,31,0.00,,,0.00,VWS V14.00,2013-02-17 08:25:00,
2013-02-17 03:30:00,28.9,2.1,30.14,WNW,286,5.4,5.4,31,0.00,,,0.00,VWS V14.00,2013-02-17 08:30:00,
2013-02-17 03:35:00,29.1,2.3,30.14,North,3,6.3,6.3,31,0.00,,,0.00,VWS V14.00,2013-02-17 08:35:00,
2013-02-17 03:40:00,29.1,2.3,30.14,NW,311,4.0,5.8,31,0.00,,,0.00,VWS V14.00,2013-02-17 08:40:00,
2013-02-17 03:45:00,28.8,2.0,30.14,West,275,5.4,8.1,31,0.00,,,0.00,VWS V14.00,2013-02-17 08:45:00,
2013-02-17 03:50:00,28.9,2.1,30.14,NNW,344,4.0,4.0,31,0.00,,,0.00,VWS V14.00,2013-02-17 08:50:00,
2013-02-17 03:55:00,28.9,2.1,30.14,NNW,332,4.0,6.3,31,0.00,,,0.00,VWS V14.00,2013-02-17 08:55:00,
2013-02-17 04:00:00,29.1,2.3,30.14,North,1,4.0,5.8,31,0.00,,,0.00,VWS V14.00,2013-02-17 09:00:00,
2013-02-17 04:05:00,28.9,2.1,30.14,NW,306,5.8,6.3,31,0.00,,,0.00,VWS V14.00,2013-02-17 09:05:00,
2013-02-17 04:10:00,28.8,2.0,30.14,WNW,290,4.0,4.0,31,0.00,,,0.00,VWS V14.00,2013-02-17 09:10:00,
2013-02-17 04:16:00,28.6,1.8,30.14,West,261,4.0,11.0,31,0.00,,,0.00,VWS V14.00,2013-02-17 09:16:00,
2013-02-17 04:21:00,28.6,1.8,30.14,WNW,294,2.7,4.5,31,0.00,,,0.00,VWS V14.00,2013-02-17 09:21:00,
2013-02-17 04:26:00,28.6,1.8,30.14,WNW,294,5.8,7.6,31,0.00,,,0.00,VWS V14.00,2013-02-17 09:26:00,
2013-02-17 04:31:00,28.6,1.8,30.14,NNW,329,4.9,8.1,31,0.00,,,0.00,VWS V14.00,2013-02-17 09:31:00,
2013-02-17 04:36:00,28.6,1.8,30.14,WNW,291,5.4,6.3,31,0.00,,,0.00,VWS V14.00,2013-02-17 09:36:00,
2013-02-17 04:41:00,28.6,1.8,30.17,West,259,2.7,6.3,31,0.00,,,0.00,VWS V14.00,2013-02-17 09:41:00,
2013-02-17 04:46:00,28.6,1.8,30.17,NW,305,4.9,8.1,31,0.00,,,0.00,VWS V14.00,2013-02-17 09:46:00,
2013-02-17 04:51:00,28.6,1.8,30.17,West,279,3.6,5.4,31,0.00,,,0.00,VWS V14.00,2013-02-17 09:51:00,
2013-02-17 04:56:00,28.6,1.8,30.17,NW,319,7.2,7.2,31,0.00,,,0.00,VWS V14.00,2013-02-17 09:56:00,
2013-02-17 05:01:00,28.4,1.6,30.17,West,281,6.3,6.3,31,0.00,,,0.00,VWS V14.00,2013-02-17 10:01:00,
2013-02-17 05:06:00,28.4,1.6,30.17,WNW,291,6.3,6.3,31,0.00,,,0.00,VWS V14.00,2013-02-17 10:06:00,
2013-02-17 05:11:00,28.4,1.6,30.17,WNW,285,5.4,6.3,31,0.00,,,0.00,VWS V14.00,2013-02-17 10:11:00,
2013-02-17 05:17:00,28.4,1.6,30.17,NW,305,4.0,6.3,31,0.00,,,0.00,VWS V14.00,2013-02-17 10:17:00,
2013-02-17 05:22:00,28.4,1.6,30.17,North,357,3.6,8.1,31,0.00,,,0.00,VWS V14.00,2013-02-17 10:22:00,
2013-02-17 05:27:00,28.2,1.5,30.17,NW,313,4.9,8.7,31,0.00,,,0.00,VWS V14.00,2013-02-17 10:27:00,
2013-02-17 05:32:00,28.2,1.5,30.17,WNW,299,10.1,10.1,31,0.00,,,0.00,VWS V14.00,2013-02-17 10:32:00,
2013-02-17 05:37:00,28.2,1.5,30.17,WNW,293,2.2,8.1,31,0.00,,,0.00,VWS V14.00,2013-02-17 10:37:00,
2013-02-17 05:42:00,28.2,1.5,30.17,NW,306,4.0,4.0,31,0.00,,,0.00,VWS V14.00,2013-02-17 10:42:00,
2013-02-17 05:47:00,28.2,1.5,30.17,NNW,343,6.3,8.7,31,0.00,,,0.00,VWS V14.00,2013-02-17 10:47:00,
2013-02-17 05:52:00,28.4,1.6,30.17,NNW,348,5.8,7.6,31,0.00,,,0.00,VWS V14.00,2013-02-17 10:52:00,
2013-02-17 05:57:00,28.2,1.5,30.20,WNW,296,3.6,6.7,31,0.00,,,0.00,VWS V14.00,2013-02-17 10:57:00,
2013-02-17 06:02:00,28.0,1.3,30.20,NW,308,2.7,5.8,31,0.00,,,0.00,VWS V14.00,2013-02-17 11:02:00,
2013-02-17 06:07:00,27.9,1.2,30.20,West,277,6.3,8.3,31,0.00,,,0.00,VWS V14.00,2013-02-17 11:07:00,
2013-02-17 06:12:00,27.7,1.0,30.20,WNW,299,5.4,6.3,31,0.00,,,0.00,VWS V14.00,2013-02-17 11:12:00,
2013-02-17 06:17:00,27.9,1.2,30.20,NNW,346,3.1,3.6,31,0.00,,,0.00,VWS V14.00,2013-02-17 11:17:00,
2013-02-17 06:23:00,27.3,1.4,30.20,WNW,288,6.3,6.3,32,0.00,,,0.00,VWS V14.00,2013-02-17 11:23:00,
2013-02-17 06:28:00,27.5,0.8,30.20,West,269,2.7,4.9,31,0.00,,,0.00,VWS V14.00,2013-02-17 11:28:00,
2013-02-17 06:33:00,27.7,1.0,30.20,WNW,287,3.1,5.8,31,0.00,,,0.00,VWS V14.00,2013-02-17 11:33:00,
2013-02-17 06:38:00,27.7,1.0,30.20,WNW,291,5.4,6.3,31,0.00,,,0.00,VWS V14.00,2013-02-17 11:38:00,
2013-02-17 06:43:00,27.7,1.0,30.20,WNW,293,4.0,5.8,31,0.00,,,0.00,VWS V14.00,2013-02-17 11:43:00,
2013-02-17 06:48:00,27.7,1.0,30.20,WNW,298,4.9,5.8,31,0.00,,,0.00,VWS V14.00,2013-02-17 11:48:00,
2013-02-17 06:53:00,27.5,0.8,30.20,NW,308,4.9,5.8,31,0.00,,,0.00,VWS V14.00,2013-02-17 11:53:00,
2013-02-17 06:58:00,27.5,0.8,30.20,NNW,341,4.9,8.1,31,0.00,,,0.00,VWS V14.00,2013-02-17 11:58:00,
2013-02-17 07:03:00,27.3,0.7,30.20,North,350,5.4,5.8,31,0.00,,,0.00,VWS V14.00,2013-02-17 12:03:00,
2013-02-17 07:08:00,27.5,0.8,30.20,WSW,257,5.4,6.3,31,0.00,,,0.00,VWS V14.00,2013-02-17 12:08:00,
2013-02-17 07:13:00,27.5,0.8,30.23,NW,319,2.7,7.6,31,0.00,,,0.00,VWS V14.00,2013-02-17 12:13:00,
2013-02-17 07:18:00,27.3,0.7,30.23,WNW,285,4.0,5.4,31,0.00,,,0.00,VWS V14.00,2013-02-17 12:18:00,
2013-02-17 07:23:00,27.5,0.8,30.23,WNW,297,3.1,6.3,31,0.00,,,0.00,VWS V14.00,2013-02-17 12:23:00,
2013-02-17 07:28:00,27.5,0.8,30.23,NW,317,4.0,4.0,31,0.00,,,0.00,VWS V14.00,2013-02-17 12:28:00,
2013-02-17 07:34:00,27.5,0.8,30.23,West,262,4.9,4.9,31,0.00,,,0.00,VWS V14.00,2013-02-17 12:34:00,
2013-02-17 07:39:00,27.9,1.2,30.23,NW,307,3.6,5.4,31,0.00,,,0.00,VWS V14.00,2013-02-17 12:39:00,
2013-02-17 07:44:00,28.0,1.3,30.23,North,353,3.1,3.6,31,0.00,,,0.00,VWS V14.00,2013-02-17 12:44:00,
2013-02-17 07:49:00,28.2,1.5,30.23,NW,308,3.6,3.6,31,0.00,,,0.00,VWS V14.00,2013-02-17 12:49:00,
2013-02-17 07:54:00,28.6,1.1,30.23,WSW,240,4.9,5.4,30,0.00,,,0.00,VWS V14.00,2013-02-17 12:54:00,
2013-02-17 07:59:00,28.6,1.1,30.26,NW,318,2.7,6.3,30,0.00,,,0.00,VWS V14.00,2013-02-17 12:59:00,
2013-02-17 08:04:00,28.9,1.4,30.26,NW,322,3.1,3.1,30,0.00,,,0.00,VWS V14.00,2013-02-17 13:04:00,
2013-02-17 08:09:00,29.1,1.6,30.26,NNE,15,2.7,5.8,30,0.00,,,0.00,VWS V14.00,2013-02-17 13:09:00,
2013-02-17 08:14:00,29.3,0.2,30.26,WNW,297,5.4,8.7,28,0.00,,,0.00,VWS V14.00,2013-02-17 13:14:00,
2013-02-17 08:19:00,29.5,0.4,30.26,NW,314,0.0,6.3,28,0.00,,,0.00,VWS V14.00,2013-02-17 13:19:00,
2013-02-17 08:24:00,29.7,0.6,30.26,North,8,6.3,6.3,28,0.00,,,0.00,VWS V14.00,2013-02-17 13:24:00,
2013-02-17 08:29:00,29.8,0.7,30.26,North,8,5.4,7.6,28,0.00,,,0.00,VWS V14.00,2013-02-17 13:29:00,
2013-02-17 08:34:00,30.0,0.9,30.26,NW,310,5.8,5.8,28,0.00,,,0.00,VWS V14.00,2013-02-17 13:34:00,
2013-02-17 08:39:00,30.2,1.0,30.26,NNE,31,4.0,4.5,28,0.00,,,0.00,VWS V14.00,2013-02-17 13:39:00,
2013-02-17 08:45:00,30.7,1.5,30.26,NNW,330,5.4,5.4,28,0.00,,,0.00,VWS V14.00,2013-02-17 13:45:00,
2013-02-17 08:50:00,31.1,-0.6,30.26,North,0,6.3,7.6,25,0.00,,,0.00,VWS V14.00,2013-02-17 13:50:00,
2013-02-17 08:55:00,31.5,-0.3,30.26,WSW,257,6.3,8.1,25,0.00,,,0.00,VWS V14.00,2013-02-17 13:55:00,
2013-02-17 09:01:00,31.6,-0.1,30.26,NNW,334,0.0,5.4,25,0.00,,,0.00,VWS V14.00,2013-02-17 14:01:00,
2013-02-17 09:07:00,32.2,0.3,30.26,West,270,3.1,5.4,25,0.00,,,0.00,VWS V14.00,2013-02-17 14:07:00,
2013-02-17 09:13:00,32.5,0.6,30.26,WNW,293,4.0,6.3,25,0.00,,,0.00,VWS V14.00,2013-02-17 14:13:00,
2013-02-17 10:41:00,36.9,1.6,30.26,WSW,252,7.6,7.6,22,0.00,,,0.00,VWS V14.00,2013-02-17 15:41:00,
2013-02-17 10:46:00,36.9,1.6,30.26,North,353,8.3,8.3,22,0.00,,,0.00,VWS V14.00,2013-02-17 15:46:00,
2013-02-17 10:51:00,37.4,1.0,30.26,North,357,5.8,8.3,21,0.00,,,0.00,VWS V14.00,2013-02-17 15:51:00,
2013-02-17 10:56:00,37.6,1.2,30.26,NNW,331,6.3,6.3,21,0.00,,,0.00,VWS V14.00,2013-02-17 15:56:00,
2013-02-17 11:01:00,37.9,1.5,30.26,SW,221,6.3,8.1,21,0.00,,,0.00,VWS V14.00,2013-02-17 16:01:00,
2013-02-17 11:07:00,38.1,1.6,30.26,WNW,302,3.6,5.8,21,0.00,,,0.00,VWS V14.00,2013-02-17 16:07:00,
2013-02-17 11:12:00,38.3,1.8,30.29,NNW,329,10.1,10.1,21,0.00,,,0.00,VWS V14.00,2013-02-17 16:12:00,
2013-02-17 11:17:00,38.7,2.1,30.29,North,353,3.6,5.4,21,0.00,,,0.00,VWS V14.00,2013-02-17 16:17:00,
2013-02-17 11:22:00,39.0,2.4,30.29,SW,230,4.0,6.3,21,0.00,,,0.00,VWS V14.00,2013-02-17 16:22:00,
2013-02-17 11:27:00,39.7,3.0,30.29,NW,310,6.3,8.1,21,0.00,,,0.00,VWS V14.00,2013-02-17 16:27:00,
2013-02-17 11:32:00,39.7,3.0,30.29,West,259,5.4,8.7,21,0.00,,,0.00,VWS V14.00,2013-02-17 16:32:00,
2013-02-17 11:37:00,39.6,2.9,30.29,WSW,245,3.6,10.1,21,0.00,,,0.00,VWS V14.00,2013-02-17 16:37:00,
2013-02-17 11:42:00,40.3,3.5,30.29,WSW,254,8.3,8.3,21,0.00,,,0.00,VWS V14.00,2013-02-17 16:42:00,
2013-02-17 11:47:00,40.3,3.5,30.29,North,3,6.3,12.8,21,0.00,,,0.00,VWS V14.00,2013-02-17 16:47:00,
2013-02-17 11:52:00,40.3,3.5,30.29,North,3,5.4,8.1,21,0.00,,,0.00,VWS V14.00,2013-02-17 16:52:00,
2013-02-17 11:57:00,41.0,4.1,30.26,NW,310,5.8,8.3,21,0.00,,,0.00,VWS V14.00,2013-02-17 16:57:00,
2013-02-17 12:02:00,41.5,4.5,30.26,NW,324,5.4,8.7,21,0.00,,,0.00,VWS V14.00,2013-02-17 17:02:00,
2013-02-17 12:08:00,42.1,5.0,30.26,NNW,346,6.3,6.3,21,0.00,,,0.00,VWS V14.00,2013-02-17 17:08:00,
2013-02-17 12:13:00,42.1,5.0,30.26,NNW,327,7.2,7.2,21,0.00,,,0.00,VWS V14.00,2013-02-17 17:13:00,
2013-02-17 12:18:00,42.8,4.5,30.26,NNW,334,8.1,10.1,20,0.00,,,0.00,VWS V14.00,2013-02-17 17:18:00,
2013-02-17 12:23:00,42.3,5.1,30.26,North,2,2.7,9.2,21,0.00,,,0.00,VWS V14.00,2013-02-17 17:23:00,
2013-02-17 12:28:00,42.3,5.1,30.26,WSW,239,8.1,8.7,21,0.00,,,0.00,VWS V14.00,2013-02-17 17:28:00,
2013-02-17 12:33:00,43.0,4.7,30.26,WNW,291,5.4,6.3,20,0.00,,,0.00,VWS V14.00,2013-02-17 17:33:00,
2013-02-17 12:38:00,43.2,4.8,30.26,NNE,17,12.8,12.8,20,0.00,,,0.00,VWS V14.00,2013-02-17 17:38:00,
2013-02-17 12:43:00,43.5,5.1,30.26,North,2,6.3,8.1,20,0.00,,,0.00,VWS V14.00,2013-02-17 17:43:00,
2013-02-17 12:48:00,43.9,5.4,30.26,North,357,13.2,13.2,20,0.00,,,0.00,VWS V14.00,2013-02-17 17:48:00,
2013-02-17 12:53:00,43.7,5.3,30.26,SSW,211,7.6,12.8,20,0.00,,,0.00,VWS V14.00,2013-02-17 17:53:00,
2013-02-17 12:59:00,43.7,5.3,30.26,NW,310,7.6,12.3,20,0.00,,,0.00,VWS V14.00,2013-02-17 17:59:00,
2013-02-17 13:04:00,44.2,5.7,30.26,North,357,9.6,10.1,20,0.00,,,0.00,VWS V14.00,2013-02-17 18:04:00,
2013-02-17 13:09:00,44.1,5.6,30.26,North,357,6.3,8.1,20,0.00,,,0.00,VWS V14.00,2013-02-17 18:09:00,
2013-02-17 13:14:00,44.4,5.9,30.26,North,353,7.6,13.2,20,0.00,,,0.00,VWS V14.00,2013-02-17 18:14:00,
2013-02-17 13:19:00,45.3,6.6,30.26,NW,310,8.7,11.0,20,0.00,,,0.00,VWS V14.00,2013-02-17 18:19:00,
2013-02-17 13:24:00,45.1,6.5,30.26,NW,312,4.9,9.6,20,0.00,,,0.00,VWS V14.00,2013-02-17 18:24:00,
2013-02-17 13:29:00,45.3,6.6,30.23,NW,311,10.1,12.3,20,0.00,,,0.00,VWS V14.00,2013-02-17 18:29:00,
2013-02-17 13:34:00,45.1,6.5,30.23,NW,326,6.3,12.8,20,0.00,,,0.00,VWS V14.00,2013-02-17 18:34:00,
2013-02-17 13:39:00,45.5,6.8,30.23,West,261,9.6,9.6,20,0.00,,,0.00,VWS V14.00,2013-02-17 18:39:00,
2013-02-17 13:44:00,45.9,7.1,30.23,NW,313,5.8,6.3,20,0.00,,,0.00,VWS V14.00,2013-02-17 18:44:00,
2013-02-17 13:49:00,46.4,6.4,30.23,West,267,8.3,9.2,19,0.00,,,0.00,VWS V14.00,2013-02-17 18:49:00,
2013-02-17 13:55:00,46.2,7.4,30.23,North,0,10.1,10.1,20,0.00,,,0.00,VWS V14.00,2013-02-17 18:55:00,
2013-02-17 14:00:00,46.4,6.4,30.23,NW,308,4.0,13.2,19,0.00,,,0.00,VWS V14.00,2013-02-17 19:00:00,
2013-02-17 14:05:00,46.9,6.8,30.23,North,353,5.8,8.3,19,0.00,,,0.00,VWS V14.00,2013-02-17 19:05:00,
2013-02-17 14:10:00,47.1,7.0,30.23,WNW,289,3.6,11.0,19,0.00,,,0.00,VWS V14.00,2013-02-17 19:10:00,
2013-02-17 14:15:00,47.1,7.0,30.23,North,353,10.1,15.0,19,0.00,,,0.00,VWS V14.00,2013-02-17 19:15:00,
2013-02-17 14:20:00,47.5,7.3,30.23,North,357,10.1,10.1,19,0.00,,,0.00,VWS V14.00,2013-02-17 19:20:00,
2013-02-17 14:25:00,48.0,7.7,30.23,North,0,5.8,10.5,19,0.00,,,0.00,VWS V14.00,2013-02-17 19:25:00,
2013-02-17 14:30:00,47.8,7.6,30.23,North,357,8.1,8.3,19,0.00,,,0.00,VWS V14.00,2013-02-17 19:30:00,
2013-02-17 14:35:00,48.7,8.3,30.23,North,357,7.2,8.3,19,0.00,,,0.00,VWS V14.00,2013-02-17 19:35:00,
2013-02-17 14:40:00,48.7,8.3,30.20,North,0,10.5,10.5,19,0.00,,,0.00,VWS V14.00,2013-02-17 19:40:00,
2013-02-17 14:45:00,48.7,8.3,30.20,North,0,3.6,8.3,19,0.00,,,0.00,VWS V14.00,2013-02-17 19:45:00,
2013-02-17 14:51:00,50.5,9.8,30.20,NNW,339,4.0,7.6,19,0.00,,,0.00,VWS V14.00,2013-02-17 19:51:00,
2013-02-17 14:56:00,56.1,11.9,30.23,NNW,344,5.8,10.5,17,0.00,,,0.00,VWS V14.00,2013-02-17 19:56:00,
2013-02-17 15:01:00,56.1,11.9,30.23,NW,310,5.8,8.1,17,0.00,,,0.00,VWS V14.00,2013-02-17 20:01:00,
2013-02-17 15:06:00,59.4,14.6,30.23,NNW,342,8.7,10.5,17,0.00,,,0.00,VWS V14.00,2013-02-17 20:06:00,
2013-02-17 15:11:00,57.9,13.4,30.23,North,0,8.1,8.1,17,0.00,,,0.00,VWS V14.00,2013-02-17 20:11:00,
2013-02-17 15:16:00,57.2,12.8,30.23,North,357,7.6,7.6,17,0.00,,,0.00,VWS V14.00,2013-02-17 20:16:00,
2013-02-17 15:21:00,61.7,15.1,30.23,NNW,338,3.1,5.8,16,0.00,,,0.00,VWS V14.00,2013-02-17 20:21:00,
2013-02-17 15:26:00,59.9,15.0,30.23,SW,230,5.4,7.6,17,0.00,,,0.00,VWS V14.00,2013-02-17 20:26:00,
2013-02-17 15:31:00,55.9,11.8,30.23,North,357,4.9,6.3,17,0.00,,,0.00,VWS V14.00,2013-02-17 20:31:00,
2013-02-17 15:37:00,57.2,12.8,30.23,WSW,254,4.9,5.4,17,0.00,,,0.00,VWS V14.00,2013-02-17 20:37:00,
2013-02-17 15:42:00,61.7,15.1,30.20,NNW,328,3.6,5.8,16,0.00,,,0.00,VWS V14.00,2013-02-17 20:42:00,
2013-02-17 15:47:00,56.3,12.1,30.20,North,0,8.3,8.7,17,0.00,,,0.00,VWS V14.00,2013-02-17 20:47:00,
2013-02-17 15:52:00,58.1,13.5,30.20,North,357,8.7,8.7,17,0.00,,,0.00,VWS V14.00,2013-02-17 20:52:00,
2013-02-17 15:57:00,53.4,11.0,30.20,NNW,330,5.4,10.5,18,0.00,,,0.00,VWS V14.00,2013-02-17 20:57:00,
2013-02-17 16:02:00,57.7,13.2,30.20,NNW,344,3.6,8.7,17,0.00,,,0.00,VWS V14.00,2013-02-17 21:02:00,
2013-02-17 16:07:00,52.2,10.0,30.20,NW,317,5.4,13.2,18,0.00,,,0.00,VWS V14.00,2013-02-17 21:07:00,
2013-02-17 16:12:00,54.0,11.4,30.20,NW,322,8.1,8.1,18,0.00,,,0.00,VWS V14.00,2013-02-17 21:12:00,
2013-02-17 16:17:00,53.2,10.9,30.20,North,357,10.1,12.8,18,0.00,,,0.00,VWS V14.00,2013-02-17 21:17:00,
2013-02-17 16:22:00,54.3,11.7,30.20,NW,311,5.8,8.1,18,0.00,,,0.00,VWS V14.00,2013-02-17 21:22:00,
2013-02-17 16:27:00,52.9,10.6,30.20,West,273,5.4,10.5,18,0.00,,,0.00,VWS V14.00,2013-02-17 21:27:00,
2013-02-17 16:32:00,51.3,10.4,30.20,North,357,5.4,6.3,19,0.00,,,0.00,VWS V14.00,2013-02-17 21:32:00,
2013-02-17 16:38:00,54.5,11.9,30.20,NNW,327,5.8,10.1,18,0.00,,,0.00,VWS V14.00,2013-02-17 21:38:00,
2013-02-17 16:43:00,52.9,10.6,30.23,WNW,287,8.7,8.7,18,0.00,,,0.00,VWS V14.00,2013-02-17 21:43:00,
2013-02-17 16:48:00,51.3,10.4,30.23,WNW,298,5.4,7.6,19,0.00,,,0.00,VWS V14.00,2013-02-17 21:48:00,
2013-02-17 16:53:00,51.3,10.4,30.23,WSW,238,5.8,5.8,19,0.00,,,0.00,VWS V14.00,2013-02-17 21:53:00,
2013-02-17 16:58:00,50.5,9.8,30.23,West,280,7.6,7.6,19,0.00,,,0.00,VWS V14.00,2013-02-17 21:58:00,
2013-02-17 17:03:00,50.4,9.7,30.23,NNE,15,6.3,8.1,19,0.00,,,0.00,VWS V14.00,2013-02-17 22:03:00,
2013-02-17 17:08:00,50.7,10.0,30.23,NW,314,3.6,3.6,19,0.00,,,0.00,VWS V14.00,2013-02-17 22:08:00,
2013-02-17 17:13:00,50.5,9.8,30.23,North,357,5.8,7.2,19,0.00,,,0.00,VWS V14.00,2013-02-17 22:13:00,
2013-02-17 17:18:00,50.0,9.4,30.23,North,357,7.6,7.6,19,0.00,,,0.00,VWS V14.00,2013-02-17 22:18:00,
2013-02-17 17:23:00,49.3,8.8,30.23,WNW,290,5.8,5.8,19,0.00,,,0.00,VWS V14.00,2013-02-17 22:23:00,
2013-02-17 17:29:00,50.0,9.4,30.23,NW,322,4.0,5.4,19,0.00,,,0.00,VWS V14.00,2013-02-17 22:29:00,
2013-02-17 17:34:00,48.7,8.3,30.23,North,2,8.3,8.3,19,0.00,,,0.00,VWS V14.00,2013-02-17 22:34:00,
2013-02-17 17:39:00,48.7,8.3,30.23,NNW,340,2.2,3.6,19,0.00,,,0.00,VWS V14.00,2013-02-17 22:39:00,
2013-02-17 17:44:00,48.4,8.0,30.23,NW,315,5.4,5.4,19,0.00,,,0.00,VWS V14.00,2013-02-17 22:44:00,
2013-02-17 17:49:00,46.9,6.8,30.23,West,270,10.1,10.1,19,0.00,,,0.00,VWS V14.00,2013-02-17 22:49:00,
2013-02-17 17:54:00,46.0,7.2,30.23,NW,304,3.6,3.6,20,0.00,,,0.00,VWS V14.00,2013-02-17 22:54:00,
2013-02-17 17:59:00,45.5,6.8,30.23,WNW,302,0.0,3.6,20,0.00,,,0.00,VWS V14.00,2013-02-17 22:59:00,
2013-02-17 18:04:00,45.3,6.6,30.23,NNW,327,3.6,3.6,20,0.00,,,0.00,VWS V14.00,2013-02-17 23:04:00,
2013-02-17 18:09:00,44.8,6.2,30.23,WNW,292,0.0,5.4,20,0.00,,,0.00,VWS V14.00,2013-02-17 23:09:00,
2013-02-17 18:14:00,44.2,3.4,30.23,WSW,255,2.7,4.0,18,0.00,,,0.00,VWS V14.00,2013-02-17 23:14:00,
2013-02-17 18:19:00,44.1,3.3,30.23,WSW,239,0.0,0.0,18,0.00,,,0.00,VWS V14.00,2013-02-17 23:19:00,
2013-02-17 18:24:00,44.1,5.6,30.23,West,259,0.0,0.0,20,0.00,,,0.00,VWS V14.00,2013-02-17 23:24:00,
2013-02-17 18:29:00,43.5,2.8,30.23,West,281,0.0,0.0,18,0.00,,,0.00,VWS V14.00,2013-02-17 23:29:00,
2013-02-17 18:35:00,43.3,2.7,30.23,SW,228,0.0,0.0,18,0.00,,,0.00,VWS V14.00,2013-02-17 23:35:00,
2013-02-17 18:40:00,43.0,2.4,30.23,NW,305,0.0,0.0,18,0.00,,,0.00,VWS V14.00,2013-02-17 23:40:00,
2013-02-17 18:45:00,42.6,2.1,30.26,SW,227,0.0,0.0,18,0.00,,,0.00,VWS V14.00,2013-02-17 23:45:00,
2013-02-17 18:50:00,42.4,1.9,30.26,WSW,252,0.0,0.0,18,0.00,,,0.00,VWS V14.00,2013-02-17 23:50:00,
2013-02-17 18:55:00,42.3,5.1,30.26,WSW,245,0.0,0.0,21,0.00,,,0.00,VWS V14.00,2013-02-17 23:55:00,
2013-02-17 19:00:00,41.9,1.5,30.26,WSW,240,0.0,0.0,18,0.00,,,0.00,VWS V14.00,2013-02-18 00:00:00,
2013-02-17 19:05:00,41.4,1.0,30.26,WSW,240,0.0,0.0,18,0.00,,,0.00,VWS V14.00,2013-02-18 00:05:00,
2013-02-17 19:10:00,41.0,0.8,30.26,WSW,240,0.0,0.0,18,0.00,,,0.00,VWS V14.00,2013-02-18 00:10:00,
2013-02-17 19:15:00,40.8,0.6,30.26,WSW,240,0.0,2.7,18,0.00,,,0.00,VWS V14.00,2013-02-18 00:15:00,
2013-02-17 19:20:00,40.6,0.5,30.26,SW,230,0.0,0.0,18,0.00,,,0.00,VWS V14.00,2013-02-18 00:20:00,
2013-02-17 19:26:00,40.5,0.3,30.26,SW,230,0.0,0.0,18,0.00,,,0.00,VWS V14.00,2013-02-18 00:26:00,
2013-02-17 19:31:00,40.3,0.2,30.26,SW,233,0.0,0.0,18,0.00,,,0.00,VWS V14.00,2013-02-18 00:31:00,
2013-02-17 19:36:00,39.9,3.2,30.26,SW,233,0.0,0.0,21,0.00,,,0.00,VWS V14.00,2013-02-18 00:36:00,
2013-02-17 19:41:00,39.4,2.7,30.26,SW,233,0.0,0.0,21,0.00,,,0.00,VWS V14.00,2013-02-18 00:41:00,
2013-02-17 19:46:00,39.2,2.6,30.26,SW,233,0.0,0.0,21,0.00,,,0.00,VWS V14.00,2013-02-18 00:46:00,
2013-02-17 19:51:00,38.8,2.3,30.26,SW,233,0.0,0.0,21,0.00,,,0.00,VWS V14.00,2013-02-18 00:51:00,
2013-02-17 19:56:00,38.8,2.3,30.26,SW,233,0.0,0.0,21,0.00,,,0.00,VWS V14.00,2013-02-18 00:56:00,
2013-02-17 20:01:00,38.7,2.1,30.26,SW,233,0.0,0.0,21,0.00,,,0.00,VWS V14.00,2013-02-18 01:01:00,
2013-02-17 20:06:00,38.1,1.6,30.26,SW,233,0.0,0.0,21,0.00,,,0.00,VWS V14.00,2013-02-18 01:06:00,
2013-02-17 20:11:00,37.9,1.5,30.29,SW,233,0.0,0.0,21,0.00,,,0.00,VWS V14.00,2013-02-18 01:11:00,
2013-02-17 20:16:00,37.6,1.2,30.29,SW,231,0.0,2.2,21,0.00,,,0.00,VWS V14.00,2013-02-18 01:16:00,
2013-02-17 20:21:00,37.4,1.0,30.29,SW,231,2.2,2.2,21,0.00,,,0.00,VWS V14.00,2013-02-18 01:21:00,
2013-02-17 20:27:00,37.4,1.0,30.29,SW,231,0.0,0.0,21,0.00,,,0.00,VWS V14.00,2013-02-18 01:27:00,
2013-02-17 20:32:00,37.2,1.9,30.29,SW,231,0.0,0.0,22,0.00,,,0.00,VWS V14.00,2013-02-18 01:32:00,
2013-02-17 20:37:00,36.7,1.4,30.29,SW,231,0.0,0.0,22,0.00,,,0.00,VWS V14.00,2013-02-18 01:37:00,
2013-02-17 20:42:00,36.1,1.0,30.29,SW,231,0.0,0.0,22,0.00,,,0.00,VWS V14.00,2013-02-18 01:42:00,
2013-02-17 20:47:00,36.3,1.1,30.29,SW,229,2.7,3.1,22,0.00,,,0.00,VWS V14.00,2013-02-18 01:47:00,
2013-02-17 20:52:00,36.5,1.3,30.29,SW,229,0.0,0.0,22,0.00,,,0.00,VWS V14.00,2013-02-18 01:52:00,
2013-02-17 20:57:00,36.7,1.4,30.29,SW,232,0.0,3.1,22,0.00,,,0.00,VWS V14.00,2013-02-18 01:57:00,
2013-02-17 21:03:00,36.3,1.1,30.29,SW,232,0.0,0.0,22,0.00,,,0.00,VWS V14.00,2013-02-18 02:03:00,
2013-02-17 21:08:00,36.1,1.0,30.29,SW,232,0.0,2.7,22,0.00,,,0.00,VWS V14.00,2013-02-18 02:08:00,
2013-02-17 21:13:00,36.3,1.1,30.29,SW,232,0.0,2.7,22,0.00,,,0.00,VWS V14.00,2013-02-18 02:13:00,
2013-02-17 21:18:00,36.3,1.1,30.29,SW,230,2.2,2.2,22,0.00,,,0.00,VWS V14.00,2013-02-18 02:18:00,
2013-02-17 21:23:00,36.1,2.8,30.29,SW,230,3.1,3.1,24,0.00,,,0.00,VWS V14.00,2013-02-18 02:23:00,
2013-02-17 21:28:00,36.0,0.8,30.29,SW,236,0.0,0.0,22,0.00,,,0.00,VWS V14.00,2013-02-18 02:28:00,
2013-02-17 21:33:00,36.0,0.8,30.29,SW,236,0.0,0.0,22,0.00,,,0.00,VWS V14.00,2013-02-18 02:33:00,
2013-02-17 21:38:00,36.1,1.0,30.29,WSW,237,2.7,3.1,22,0.00,,,0.00,VWS V14.00,2013-02-18 02:38:00,
2013-02-17 21:44:00,35.8,0.7,30.29,WSW,240,2.2,3.6,22,0.00,,,0.00,VWS V14.00,2013-02-18 02:44:00,
2013-02-17 21:49:00,35.8,0.7,30.29,SW,232,2.7,3.6,22,0.00,,,0.00,VWS V14.00,2013-02-18 02:49:00,
2013-02-17 21:54:00,36.0,2.7,30.29,SW,233,2.7,3.1,24,0.00,,,0.00,VWS V14.00,2013-02-18 02:54:00,
2013-02-17 21:59:00,36.0,0.8,30.32,WSW,244,0.0,0.0,22,0.00,,,0.00,VWS V14.00,2013-02-18 02:59:00,
2013-02-17 22:04:00,36.3,1.1,30.32,WSW,244,0.0,0.0,22,0.00,,,0.00,VWS V14.00,2013-02-18 03:04:00,
2013-02-17 22:09:00,36.3,1.1,30.32,WSW,244,2.2,3.1,22,0.00,,,0.00,VWS V14.00,2013-02-18 03:09:00,
2013-02-17 22:14:00,36.0,2.7,30.32,WSW,244,2.7,2.7,24,0.00,,,0.00,VWS V14.00,2013-02-18 03:14:00,
2013-02-17 22:19:00,35.8,2.5,30.32,WSW,238,2.2,3.6,24,0.00,,,0.00,VWS V14.00,2013-02-18 03:19:00,
2013-02-17 22:24:00,35.8,0.7,30.32,WSW,238,3.1,3.1,22,0.00,,,0.00,VWS V14.00,2013-02-18 03:24:00,
2013-02-17 22:29:00,35.8,0.7,30.32,WSW,238,0.0,0.0,22,0.00,,,0.00,VWS V14.00,2013-02-18 03:29:00,
2013-02-17 22:35:00,36.0,0.8,30.32,WSW,241,0.0,0.0,22,0.00,,,0.00,VWS V14.00,2013-02-18 03:35:00,
2013-02-17 22:40:00,35.6,2.4,30.32,SW,232,0.0,0.0,24,0.00,,,0.00,VWS V14.00,2013-02-18 03:40:00,
2013-02-17 22:45:00,35.6,2.4,30.32,SW,220,0.0,0.0,24,0.00,,,0.00,VWS V14.00,2013-02-18 03:45:00,
2013-02-17 22:50:00,35.2,3.0,30.32,WSW,250,0.0,0.0,25,0.00,,,0.00,VWS V14.00,2013-02-18 03:50:00,
2013-02-17 22:55:00,35.1,2.8,30.32,WSW,250,0.0,0.0,25,0.00,,,0.00,VWS V14.00,2013-02-18 03:55:00,
2013-02-17 23:00:00,35.1,2.8,30.32,WSW,250,0.0,0.0,25,0.00,,,0.00,VWS V14.00,2013-02-18 04:00:00,
2013-02-17 23:05:00,34.5,2.3,30.32,WSW,250,0.0,0.0,25,0.00,,,0.00,VWS V14.00,2013-02-18 04:05:00,
2013-02-17 23:10:00,34.2,3.7,30.32,WSW,251,0.0,0.0,27,0.00,,,0.00,VWS V14.00,2013-02-18 04:10:00,
2013-02-17 23:15:00,34.0,5.8,30.32,WSW,246,0.0,0.0,30,0.00,,,0.00,VWS V14.00,2013-02-18 04:15:00,
2013-02-17 23:20:00,33.8,5.7,30.32,WSW,246,0.0,0.0,30,0.00,,,0.00,VWS V14.00,2013-02-18 04:20:00,
2013-02-17 23:25:00,33.8,5.7,30.32,WSW,246,0.0,0.0,30,0.00,,,0.00,VWS V14.00,2013-02-18 04:25:00,
2013-02-17 23:30:00,33.8,5.7,30.32,WSW,246,0.0,0.0,30,0.00,,,0.00,VWS V14.00,2013-02-18 04:30:00,
2013-02-17 23:35:00,33.6,5.5,30.32,WSW,246,0.0,0.0,30,0.00,,,0.00,VWS V14.00,2013-02-18 04:35:00,
2013-02-17 23:40:00,33.6,6.2,30.32,WSW,246,0.0,0.0,31,0.00,,,0.00,VWS V14.00,2013-02-18 04:40:00,
2013-02-17 23:46:00,33.3,5.9,30.32,WSW,246,0.0,0.0,31,0.00,,,0.00,VWS V14.00,2013-02-18 04:46:00,
2013-02-17 23:51:00,33.1,5.8,30.32,WSW,247,0.0,0.0,31,0.00,,,0.00,VWS V14.00,2013-02-18 04:51:00,
2013-02-17 23:56:00,33.1,5.8,30.32,WSW,246,0.0,0.0,31,0.00,,,0.00,VWS V14.00,2013-02-18 04:56:00,